Time;durP1;ratioP1;P1;durP2;ratioP2;P2;SDS_P1;SDS_P2;PMS_P1;PMS_P2;Temp;Humidity;BMP_temperature;BMP_pressure;BME280_temperature;BME280_humidity;BME280_pressure;Samples;Min_cycle;Max_cycle;Signal;HPM_P1;HPM_P2
2020/12/10 00:01:42;;;;;;;;;;;;;;;1.87;83.75;94521.00;4973499;28;20007;-67
2020/12/10 00:04:08;;;;;;;;;;;;;;;1.88;84.10;94519.97;4974924;28;19919;-68
2020/12/10 00:06:33;;;;;;;;;;;;;;;1.86;83.14;94518.66;4975230;28;19918;-67
2020/12/10 00:08:58;;;;;;;;;;;;;;;2.11;83.17;94517.84;4973893;28;19918;-64
2020/12/10 00:11:23;;;;;;;;;;;;;;;1.99;82.28;94518.88;4974676;28;19925;-66
2020/12/10 00:13:48;;;;;;;;;;;;;;;1.91;83.20;94516.81;4975216;28;19978;-66
2020/12/10 00:16:14;;;;;;;;;;;;;;;1.87;83.05;94518.38;4973888;28;19954;-66
2020/12/10 00:18:39;;;;;;;;;;;;;;;2.06;82.63;94513.38;4973777;28;20347;-66
2020/12/10 00:21:05;;;;;;;;;;;;;;;1.92;82.43;94509.72;4975011;28;20531;-66
2020/12/10 00:23:30;;;;;;;;;;;;;;;1.86;83.70;94506.34;4974344;28;19918;-66
2020/12/10 00:25:55;;;;;;;;;;;;;;;1.47;84.57;94506.88;4973404;28;19949;-66
2020/12/10 00:28:21;;;;;;;;;;;;;;;1.64;84.50;94497.94;4973214;28;20020;-67
2020/12/10 00:30:46;;;;;;;;;;;;;;;1.58;84.80;94496.38;4974734;28;20434;-66
2020/12/10 00:33:11;;;;;;;;;;;;;;;1.98;84.01;94504.19;4973133;28;19969;-66
2020/12/10 00:35:36;;;;;;;;;;;;;;;1.98;83.30;94506.81;4973647;28;19986;-66
2020/12/10 00:38:01;;;;;;;;;;;;;;;1.97;82.84;94507.88;4974998;28;19941;-66
2020/12/10 00:40:27;;;;;;;;;;;;;;;2.22;81.38;94506.25;4973035;28;20399;-67
2020/12/10 00:42:52;;;;;;;;;;;;;;;1.79;83.57;94509.22;4972988;28;20365;-67
2020/12/10 00:45:17;;;;;;;;;;;;;;;1.77;83.70;94498.19;4973147;28;19918;-66
2020/12/10 00:47:42;;;;;;;;;;;;;;;1.80;83.49;94494.28;4974394;28;19926;-66
2020/12/10 00:50:08;;;;;;;;;;;;;;;1.73;83.36;94485.88;4972890;28;19918;-66
2020/12/10 00:52:34;;;;;;;;;;;;;;;1.69;84.60;94480.41;4974108;28;19989;-66
2020/12/10 00:54:59;;;;;;;;;;;;;;;1.84;83.95;94474.31;4974304;28;19914;-66
2020/12/10 00:57:24;;;;;;;;;;;;;;;1.86;83.45;94472.25;4972980;28;19922;-66
2020/12/10 00:59:50;;;;;;;;;;;;;;;1.65;83.25;94483.81;4973252;28;20352;-66
2020/12/10 01:02:15;;;;;;;;;;;;;;;1.95;82.53;94478.53;4973956;28;19918;-66
2020/12/10 01:04:40;;;;;;;;;;;;;;;2.08;82.37;94472.69;4973088;28;20439;-66
2020/12/10 01:07:05;;;;;;;;;;;;;;;1.71;83.08;94472.25;4974411;28;19914;-66
2020/12/10 01:09:30;;;;;;;;;;;;;;;1.83;83.52;94468.28;4973973;28;20349;-66
2020/12/10 01:11:56;;;;;;;;;;;;;;;1.92;82.86;94465.94;4972296;28;19965;-66
2020/12/10 01:14:21;;;;;;;;;;;;;;;2.02;82.76;94462.50;4972274;28;19920;-66
2020/12/10 01:16:46;;;;;;;;;;;;;;;2.16;82.25;94467.97;4973894;28;19918;-66
2020/12/10 01:19:12;;;;;;;;;;;;;;;2.30;81.68;94464.53;4972578;28;19914;-66
2020/12/10 01:21:37;;;;;;;;;;;;;;;2.14;81.25;94467.44;4973805;28;20280;-66
2020/12/10 01:24:03;;;;;;;;;;;;;;;2.11;81.62;94462.75;4972529;28;19918;-66
2020/12/10 01:26:30;;;;;;;;;;;;;;;2.20;82.06;94459.31;4974040;28;20448;-66
2020/12/10 01:28:56;;;;;;;;;;;;;;;2.35;80.58;94461.06;4973765;28;19926;-65
2020/12/10 01:31:21;;;;;;;;;;;;;;;2.78;80.46;94458.78;4972380;28;19932;-66
2020/12/10 01:33:46;;;;;;;;;;;;;;;2.96;79.63;94458.13;4973862;28;19925;-66
2020/12/10 01:36:15;;;;;;;;;;;;;;;2.63;78.72;94462.28;4973902;28;19918;-66
2020/12/10 01:38:41;;;;;;;;;;;;;;;2.97;78.76;94462.38;4972166;28;19926;-66
2020/12/10 01:41:06;;;;;;;;;;;;;;;2.94;77.92;94460.25;4973323;28;19922;-66
2020/12/10 01:43:31;;;;;;;;;;;;;;;2.97;78.52;94466.81;4973024;28;19925;-67
2020/12/10 01:45:56;;;;;;;;;;;;;;;2.56;79.52;94467.81;4972093;28;19918;-66
2020/12/10 01:48:21;;;;;;;;;;;;;;;2.79;79.17;94463.75;4973292;28;20304;-66
2020/12/10 01:50:46;;;;;;;;;;;;;;;2.71;78.83;94453.81;4972064;28;20276;-66
2020/12/10 01:53:12;;;;;;;;;;;;;;;2.68;79.04;94458.84;4972986;28;20269;-66
2020/12/10 01:55:37;;;;;;;;;;;;;;;2.73;78.99;94445.69;4973380;28;19918;-66
2020/12/10 01:58:02;;;;;;;;;;;;;;;2.83;78.57;94456.13;4973587;28;19918;-66
2020/12/10 02:00:27;;;;;;;;;;;;;;;2.96;77.98;94444.22;4972958;28;19918;-66
2020/12/10 02:02:56;;;;;;;;;;;;;;;2.64;79.07;94442.06;4972698;28;19957;-66
2020/12/10 02:05:21;;;;;;;;;;;;;;;2.75;78.69;94439.09;4971914;28;19918;-66
2020/12/10 02:07:46;;;;;;;;;;;;;;;2.55;78.64;94437.34;4973337;28;19972;-66
2020/12/10 02:10:12;;;;;;;;;;;;;;;2.78;78.89;94430.69;4973026;28;19925;-66
2020/12/10 02:12:39;;;;;;;;;;;;;;;3.10;77.63;94427.56;4971559;28;19924;-66
2020/12/10 02:15:04;;;;;;;;;;;;;;;3.06;77.14;94426.53;4971854;28;19921;-66
2020/12/10 02:17:29;;;;;;;;;;;;;;;3.10;77.41;94421.53;4973224;28;19922;-67
2020/12/10 02:19:54;;;;;;;;;;;;;;;3.05;77.66;94414.47;4971714;28;19985;-66
2020/12/10 02:22:20;;;;;;;;;;;;;;;3.16;77.42;94411.78;4971438;28;20393;-66
2020/12/10 02:24:45;;;;;;;;;;;;;;;3.02;77.68;94422.91;4971963;28;19925;-66
2020/12/10 02:27:10;;;;;;;;;;;;;;;3.05;77.58;94411.84;4972984;28;19914;-66
2020/12/10 02:29:35;;;;;;;;;;;;;;;3.22;77.28;94405.41;4972812;28;19925;-66
2020/12/10 02:32:00;;;;;;;;;;;;;;;3.11;76.69;94400.22;4972090;28;20380;-67
2020/12/10 02:34:25;;;;;;;;;;;;;;;3.17;77.20;94402.81;4971747;28;20057;-66
2020/12/10 02:36:51;;;;;;;;;;;;;;;3.16;77.08;94396.00;4973059;28;19938;-66
2020/12/10 02:39:16;;;;;;;;;;;;;;;3.12;77.12;94390.50;4971561;28;20372;-66
2020/12/10 02:41:41;;;;;;;;;;;;;;;2.91;77.33;94387.25;4972700;28;19918;-66
2020/12/10 02:44:06;;;;;;;;;;;;;;;2.95;77.68;94384.88;4972907;28;19922;-66
2020/12/10 02:46:32;;;;;;;;;;;;;;;2.84;78.10;94397.28;4972992;28;19961;-66
2020/12/10 02:48:57;;;;;;;;;;;;;;;2.65;79.02;94394.50;4972666;28;19925;-67
2020/12/10 02:51:22;;;;;;;;;;;;;;;2.95;78.33;94382.25;4972561;28;20356;-66
2020/12/10 02:53:47;;;;;;;;;;;;;;;2.56;79.13;94385.66;4971552;28;19914;-67
2020/12/10 02:56:13;;;;;;;;;;;;;;;2.50;79.16;94374.38;4972833;28;19964;-66
2020/12/10 02:58:39;;;;;;;;;;;;;;;2.75;78.38;94368.19;4976089;28;19914;-66
2020/12/10 03:01:08;;;;;;;;;;;;;;;3.18;78.16;94365.78;4975077;28;20369;-66
2020/12/10 03:03:34;;;;;;;;;;;;;;;3.00;77.25;94363.81;4974458;28;20365;-65
2020/12/10 03:05:59;;;;;;;;;;;;;;;3.22;77.32;94355.47;4975081;28;19922;-66
2020/12/10 03:08:24;;;;;;;;;;;;;;;2.83;77.49;94359.75;4976159;28;19929;-66
2020/12/10 03:10:52;;;;;;;;;;;;;;;2.92;78.05;94359.94;4974672;28;19926;-67
2020/12/10 03:13:17;;;;;;;;;;;;;;;2.90;77.98;94351.53;4975992;28;19918;-67
2020/12/10 03:15:43;;;;;;;;;;;;;;;2.50;78.51;94358.63;4976197;28;19925;-66
2020/12/10 03:18:08;;;;;;;;;;;;;;;2.63;79.01;94353.84;4976252;28;19918;-66
2020/12/10 03:20:33;;;;;;;;;;;;;;;3.16;77.84;94346.84;4974758;28;19924;-65
2020/12/10 03:22:58;;;;;;;;;;;;;;;3.10;76.48;94343.50;4975657;28;19918;-66
2020/12/10 03:25:24;;;;;;;;;;;;;;;2.94;77.32;94338.66;4975905;28;20318;-66
2020/12/10 03:27:49;;;;;;;;;;;;;;;2.54;78.54;94343.91;4974580;28;19928;-66
2020/12/10 03:30:14;;;;;;;;;;;;;;;2.44;79.83;94336.09;4975740;28;19973;-66
2020/12/10 03:32:40;;;;;;;;;;;;;;;2.50;79.19;94329.75;4975017;28;19950;-66
2020/12/10 03:35:05;;;;;;;;;;;;;;;2.81;78.89;94325.06;4975862;28;19922;-66
2020/12/10 03:37:30;;;;;;;;;;;;;;;2.60;78.05;94328.91;4975844;28;20362;-66
2020/12/10 03:39:55;;;;;;;;;;;;;;;2.86;77.84;94329.50;4974183;28;20103;-66
2020/12/10 03:42:21;;;;;;;;;;;;;;;2.17;79.46;94330.50;4975464;28;19925;-66
2020/12/10 03:44:46;;;;;;;;;;;;;;;2.03;80.96;94323.19;4974429;28;19926;-66
2020/12/10 03:47:11;;;;;;;;;;;;;;;2.63;79.35;94319.72;4975912;28;20276;-66
2020/12/10 03:49:37;;;;;;;;;;;;;;;2.62;79.64;94312.91;4975473;28;19918;-66
2020/12/10 03:52:02;;;;;;;;;;;;;;;2.61;78.34;94312.13;4975280;28;19922;-66
2020/12/10 03:54:27;;;;;;;;;;;;;;;2.22;80.41;94310.25;4975442;28;19980;-66
2020/12/10 03:56:52;;;;;;;;;;;;;;;2.47;79.42;94306.69;4974130;28;20060;-66
2020/12/10 03:59:17;;;;;;;;;;;;;;;2.56;79.26;94301.66;4972915;28;19919;-66
2020/12/10 04:01:43;;;;;;;;;;;;;;;2.94;78.42;94300.03;4974145;28;19961;-66
2020/12/10 04:04:08;;;;;;;;;;;;;;;2.81;77.23;94298.03;4973766;28;20053;-66
2020/12/10 04:06:33;;;;;;;;;;;;;;;2.89;77.67;94299.28;4975117;28;20389;-65
2020/12/10 04:09:00;;;;;;;;;;;;;;;3.15;77.22;94294.59;4973456;28;20364;-66
2020/12/10 04:11:25;;;;;;;;;;;;;;;3.35;76.88;94289.91;4974973;28;19922;-67
2020/12/10 04:13:50;;;;;;;;;;;;;;;3.56;76.37;94292.31;4975367;28;20005;-67
2020/12/10 04:16:16;;;;;;;;;;;;;;;3.61;75.55;94293.03;4973870;28;19934;-67
2020/12/10 04:18:41;;;;;;;;;;;;;;;3.15;74.87;94294.59;4973564;28;20291;-66
2020/12/10 04:21:08;;;;;;;;;;;;;;;3.39;75.24;94295.41;4975027;28;19914;-66
2020/12/10 04:23:33;;;;;;;;;;;;;;;3.55;74.96;94288.91;4973494;28;19925;-66
2020/12/10 04:25:59;;;;;;;;;;;;;;;3.67;74.32;94291.13;4973797;28;19914;-66
2020/12/10 04:28:24;;;;;;;;;;;;;;;3.71;73.97;94286.09;4974595;28;19918;-66
2020/12/10 04:30:49;;;;;;;;;;;;;;;3.20;73.48;94279.56;4974786;28;20384;-66
2020/12/10 04:33:14;;;;;;;;;;;;;;;3.37;74.53;94279.88;4974053;28;19933;-66
2020/12/10 04:35:41;;;;;;;;;;;;;;;3.45;74.44;94286.41;4974296;28;20597;-65
2020/12/10 04:38:07;;;;;;;;;;;;;;;3.28;74.05;94281.59;4974883;28;20017;-66
2020/12/10 04:40:33;;;;;;;;;;;;;;;3.42;74.50;94279.06;4974455;28;19953;-65
2020/12/10 04:42:59;;;;;;;;;;;;;;;3.66;74.39;94284.31;4974432;28;19929;-66
2020/12/10 04:45:24;;;;;;;;;;;;;;;3.83;73.89;94283.84;4974514;28;19918;-66
2020/12/10 04:47:51;;;;;;;;;;;;;;;3.95;74.45;94280.81;4974784;28;19973;-66
2020/12/10 04:50:18;;;;;;;;;;;;;;;4.00;73.53;94281.53;4974187;28;20368;-66
2020/12/10 04:52:43;;;;;;;;;;;;;;;4.01;73.03;94284.94;4974193;28;19954;-66
2020/12/10 04:55:08;;;;;;;;;;;;;;;3.97;72.83;94276.84;4974282;28;20519;-66
2020/12/10 04:57:34;;;;;;;;;;;;;;;3.72;71.91;94277.16;4974465;28;20292;-66
2020/12/10 04:59:59;;;;;;;;;;;;;;;3.67;73.08;94275.34;4972915;28;19926;-66
2020/12/10 05:02:24;;;;;;;;;;;;;;;3.56;72.81;94272.06;4973533;28;19957;-66
2020/12/10 05:04:51;;;;;;;;;;;;;;;3.64;73.16;94276.72;4974208;28;19918;-66
2020/12/10 05:07:17;;;;;;;;;;;;;;;3.70;73.24;94276.66;4974270;28;19918;-66
2020/12/10 05:09:55;;;;;;;;;;;;;;;3.62;73.26;94276.19;4973864;28;19918;-66
2020/12/10 05:12:20;;;;;;;;;;;;;;;3.83;73.31;94273.31;4972672;28;20336;-65
2020/12/10 05:14:48;;;;;;;;;;;;;;;3.96;73.33;94263.97;4974022;28;20016;-65
2020/12/10 05:17:15;;;;;;;;;;;;;;;4.09;72.91;94261.41;4974077;28;19922;-65
2020/12/10 05:19:41;;;;;;;;;;;;;;;4.18;71.90;94267.59;4972010;28;19956;-66
2020/12/10 05:22:07;;;;;;;;;;;;;;;4.26;71.99;94266.19;4972213;28;19922;-65
2020/12/10 05:24:33;;;;;;;;;;;;;;;4.27;71.98;94264.34;4973373;28;19925;-64
2020/12/10 05:27:17;;;;;;;;;;;;;;;4.31;71.15;94267.97;4973798;28;19918;-65
2020/12/10 05:29:43;;;;;;;;;;;;;;;4.32;71.35;94264.25;4973544;28;20005;-66
2020/12/10 05:32:09;;;;;;;;;;;;;;;4.34;71.43;94264.75;4972970;28;20090;-65
2020/12/10 05:34:35;;;;;;;;;;;;;;;4.32;71.17;94259.78;4973587;28;19928;-65
2020/12/10 05:37:00;;;;;;;;;;;;;;;4.35;70.93;94255.78;4973685;28;19922;-66
2020/12/10 05:39:25;;;;;;;;;;;;;;;4.34;70.86;94257.63;4972029;28;19953;-66
2020/12/10 05:41:54;;;;;;;;;;;;;;;4.31;70.90;94258.22;4973299;28;19943;-66
2020/12/10 05:44:20;;;;;;;;;;;;;;;4.35;70.61;94268.94;4971959;28;19918;-66
2020/12/10 05:46:46;;;;;;;;;;;;;;;4.35;70.64;94271.56;4973440;28;19922;-66
2020/12/10 05:49:12;;;;;;;;;;;;;;;4.35;70.81;94258.41;4971817;28;19926;-66
2020/12/10 05:51:41;;;;;;;;;;;;;;;4.35;70.86;94259.22;4973231;28;19918;-66
2020/12/10 05:54:08;;;;;;;;;;;;;;;4.38;71.04;94260.47;4973244;28;19918;-66
2020/12/10 05:56:38;;;;;;;;;;;;;;;4.40;70.83;94255.69;4973463;28;19920;-66
2020/12/10 05:59:05;;;;;;;;;;;;;;;4.41;70.73;94258.06;4973155;28;19918;-66
2020/12/10 06:01:34;;;;;;;;;;;;;;;4.38;70.82;94257.84;4972913;28;19941;-65
2020/12/10 06:04:00;;;;;;;;;;;;;;;4.40;70.82;94260.97;4972734;28;20295;-65
2020/12/10 06:06:29;;;;;;;;;;;;;;;4.38;70.58;94269.16;4971691;28;19929;-65
2020/12/10 06:09:02;;;;;;;;;;;;;;;4.38;70.69;94260.47;4972334;28;19925;-66
2020/12/10 06:11:28;;;;;;;;;;;;;;;4.39;70.49;94265.44;4972949;28;19918;-66
2020/12/10 06:14:04;;;;;;;;;;;;;;;4.41;70.62;94257.28;4973001;28;20560;-65
2020/12/10 06:16:29;;;;;;;;;;;;;;;4.39;69.77;94260.19;4973708;28;19961;-60
2020/12/10 06:19:05;;;;;;;;;;;;;;;4.43;69.57;94255.13;4972813;28;20377;-66
2020/12/10 06:21:35;;;;;;;;;;;;;;;4.44;69.44;94254.06;4971686;28;20376;-66
2020/12/10 06:24:00;;;;;;;;;;;;;;;4.50;69.91;94257.41;4964880;28;19919;-67
2020/12/10 06:26:26;;;;;;;;;;;;;;;4.22;69.82;94253.88;4952490;28;19919;-67
2020/12/10 06:28:51;;;;;;;;;;;;;;;3.83;70.93;94252.28;4952728;28;19926;-66
2020/12/10 06:31:17;;;;;;;;;;;;;;;3.92;71.33;94261.09;4952071;28;19922;-67
2020/12/10 06:33:43;;;;;;;;;;;;;;;4.05;71.63;94255.16;4957074;28;19918;-67
2020/12/10 06:36:17;;;;;;;;;;;;;;;4.11;71.64;94253.25;4972108;28;19969;-67
2020/12/10 06:38:43;;;;;;;;;;;;;;;4.13;71.19;94256.34;4957228;29;20365;-68
2020/12/10 06:41:08;;;;;;;;;;;;;;;4.22;71.11;94254.66;4957218;29;19926;-67
2020/12/10 06:43:37;;;;;;;;;;;;;;;3.89;70.61;94259.06;4955812;29;20005;-65
2020/12/10 06:46:02;;;;;;;;;;;;;;;3.33;71.94;94262.34;4957416;29;19925;-67
2020/12/10 06:48:38;;;;;;;;;;;;;;;3.46;73.17;94268.78;4957060;29;19997;-67
2020/12/10 06:51:10;;;;;;;;;;;;;;;3.80;72.69;94266.00;4955829;29;19918;-66
2020/12/10 06:53:35;;;;;;;;;;;;;;;4.01;72.55;94272.56;4956982;29;19929;-67
2020/12/10 06:56:04;;;;;;;;;;;;;;;4.18;72.22;94270.22;4957499;29;19918;-67
2020/12/10 06:58:36;;;;;;;;;;;;;;;4.24;71.45;94272.78;4956842;29;19965;-67
2020/12/10 07:01:40;;;;;;;;;;;;;;;4.34;70.80;94267.38;4956006;28;20369;-67
2020/12/10 07:04:17;;;;;;;;;;;;;;;4.29;70.53;94270.88;4916129;29;19951;-67
2020/12/10 07:06:42;;;;;;;;;;;;;;;4.11;70.16;94267.19;4949414;29;20214;-66
2020/12/10 07:09:08;;;;;;;;;;;;;;;3.96;70.45;94275.28;4956644;29;20021;-66
2020/12/10 07:11:38;;;;;;;;;;;;;;;4.09;70.57;94266.66;4971523;28;19919;-67
2020/12/10 07:14:22;;;;;;;;;;;;;;;4.20;70.51;94275.22;4971456;28;19962;-67
2020/12/10 07:16:47;;;;;;;;;;;;;;;4.26;70.29;94268.03;4956857;29;20283;-68
2020/12/10 07:19:13;;;;;;;;;;;;;;;4.26;69.97;94265.41;4971401;28;19926;-68
2020/12/10 07:21:38;;;;;;;;;;;;;;;4.33;70.02;94269.22;4955113;28;20448;-67
2020/12/10 07:24:03;;;;;;;;;;;;;;;4.36;70.04;94273.16;4955281;28;19922;-67
2020/12/10 07:26:28;;;;;;;;;;;;;;;4.29;69.88;94268.22;4956689;29;20392;-67
2020/12/10 07:28:54;;;;;;;;;;;;;;;4.10;70.39;94262.22;4955144;29;19918;-67
2020/12/10 07:31:19;;;;;;;;;;;;;;;4.27;70.64;94265.13;4970764;28;19969;-67
2020/12/10 07:33:44;;;;;;;;;;;;;;;4.36;70.50;94255.50;4955925;29;19972;-66
2020/12/10 07:36:10;;;;;;;;;;;;;;;4.34;70.22;94260.25;4971198;28;19922;-67
2020/12/10 07:38:35;;;;;;;;;;;;;;;4.23;70.29;94255.44;4955054;28;19922;-67
2020/12/10 07:41:00;;;;;;;;;;;;;;;4.25;70.49;94253.28;4956386;29;19919;-66
2020/12/10 07:43:26;;;;;;;;;;;;;;;4.28;70.47;94253.50;4955681;28;19934;-67
2020/12/10 07:45:52;;;;;;;;;;;;;;;4.38;70.48;94247.31;4956241;29;19925;-66
2020/12/10 07:48:17;;;;;;;;;;;;;;;4.48;70.30;94246.38;4956072;29;19918;-67
2020/12/10 07:50:44;;;;;;;;;;;;;;;4.53;70.15;94241.81;4955856;28;19974;-67
2020/12/10 07:53:09;;;;;;;;;;;;;;;4.58;69.79;94241.75;4954607;28;19926;-65
2020/12/10 07:55:36;;;;;;;;;;;;;;;4.55;69.74;94244.16;4956151;29;19922;-63
2020/12/10 07:58:10;;;;;;;;;;;;;;;4.65;69.96;94242.13;4971550;28;19918;-75
2020/12/10 08:00:36;;;;;;;;;;;;;;;4.61;69.61;94243.03;4954640;28;19922;-67
2020/12/10 08:03:37;;;;;;;;;;;;;;;4.26;69.62;94242.50;4953765;29;19919;-75
2020/12/10 08:06:09;;;;;;;;;;;;;;;4.31;70.27;94239.00;4915422;29;19923;-64
2020/12/10 08:08:41;;;;;;;;;;;;;;;4.44;70.07;94246.16;4948826;29;19919;-64
2020/12/10 08:11:07;;;;;;;;;;;;;;;4.55;69.71;94242.28;4977844;28;20384;-71
2020/12/10 08:13:32;;;;;;;;;;;;;;;4.59;69.25;94239.88;4982252;28;19942;-77
2020/12/10 08:16:05;;;;;;;;;;;;;;;4.58;68.94;94236.47;4974913;28;19922;-66
2020/12/10 08:18:30;;;;;;;;;;;;;;;4.64;68.61;94232.69;4973977;28;20014;-68
2020/12/10 08:20:55;;;;;;;;;;;;;;;4.73;69.16;94237.31;4975404;28;19961;-69
2020/12/10 08:23:20;;;;;;;;;;;;;;;4.83;68.61;94231.84;4973561;28;19918;-64
2020/12/10 08:25:46;;;;;;;;;;;;;;;4.76;67.59;94226.16;4973667;28;19922;-64
2020/12/10 08:28:12;;;;;;;;;;;;;;;4.87;68.12;94227.59;4973586;28;19918;-72
2020/12/10 08:30:49;;;;;;;;;;;;;;;4.80;67.00;94227.16;4974675;28;19972;-70
2020/12/10 08:33:14;;;;;;;;;;;;;;;4.85;67.27;94225.22;4971503;28;20468;-65
2020/12/10 08:35:40;;;;;;;;;;;;;;;4.95;67.34;94229.53;4974318;28;19919;-73
2020/12/10 08:38:06;;;;;;;;;;;;;;;5.03;66.91;94223.59;4973052;28;19973;-67
2020/12/10 08:40:31;;;;;;;;;;;;;;;5.14;66.58;94238.16;4972381;28;19961;-76
2020/12/10 08:43:06;;;;;;;;;;;;;;;5.10;65.53;94231.13;4974140;28;20430;-72
2020/12/10 08:45:32;;;;;;;;;;;;;;;5.16;65.92;94227.31;4972608;28;20388;-68
2020/12/10 08:48:01;;;;;;;;;;;;;;;5.22;65.26;94231.44;4972590;28;19926;-68
2020/12/10 08:50:27;;;;;;;;;;;;;;;5.27;65.06;94220.78;4973324;28;19918;-67
2020/12/10 08:52:59;;;;;;;;;;;;;;;5.34;65.28;94228.31;4973281;28;20004;-67
2020/12/10 08:55:24;;;;;;;;;;;;;;;5.36;64.95;94228.78;4971622;28;20581;-68
2020/12/10 08:57:49;;;;;;;;;;;;;;;5.28;64.74;94230.28;4972200;28;20030;-68
2020/12/10 09:00:15;;;;;;;;;;;;;;;5.33;64.83;94234.66;4971813;28;19980;-68
2020/12/10 09:02:40;;;;;;;;;;;;;;;5.38;65.01;94234.56;4972498;28;19972;-67
2020/12/10 09:05:05;;;;;;;;;;;;;;;5.43;64.69;94237.91;4971826;28;20018;-69
2020/12/10 09:07:30;;;;;;;;;;;;;;;5.43;64.78;94226.56;4972997;28;20387;-66
2020/12/10 09:09:55;;;;;;;;;;;;;;;5.55;64.90;94233.97;4971551;28;19922;-68
2020/12/10 09:12:21;;;;;;;;;;;;;;;5.64;64.65;94229.59;4971745;28;19925;-68
2020/12/10 09:14:46;;;;;;;;;;;;;;;5.63;64.15;94234.09;4971588;28;19973;-66
2020/12/10 09:17:11;;;;;;;;;;;;;;;5.73;64.57;94233.06;4973207;28;19925;-66
2020/12/10 09:19:36;;;;;;;;;;;;;;;5.40;63.97;94229.78;4972732;28;19964;-65
2020/12/10 09:22:01;;;;;;;;;;;;;;;5.62;64.87;94224.59;4972840;28;20280;-64
2020/12/10 09:24:27;;;;;;;;;;;;;;;5.73;64.66;94231.25;4972982;28;19964;-64
2020/12/10 09:26:52;;;;;;;;;;;;;;;5.81;64.15;94229.75;4972001;28;19918;-63
2020/12/10 09:29:18;;;;;;;;;;;;;;;5.89;64.23;94217.72;4971525;28;19972;-63
2020/12/10 09:33:44;;;;;;;;;;;;;;;5.94;63.38;94223.72;5068793;28;19916;-64
2020/12/10 09:36:09;;;;;;;;;;;;;;;6.03;62.87;94218.50;5067755;28;19920;-63
2020/12/10 09:38:39;;;;;;;;;;;;;;;6.10;62.77;94215.47;5068892;28;19916;-66
2020/12/10 09:41:04;;;;;;;;;;;;;;;6.02;63.17;94214.28;5067874;28;19923;-64
2020/12/10 09:43:30;;;;;;;;;;;;;;;6.06;62.48;94217.91;5068951;28;19920;-65
2020/12/10 09:46:03;;;;;;;;;;;;;;;6.02;63.12;94221.44;5067823;28;19960;-65
2020/12/10 09:48:29;;;;;;;;;;;;;;;6.03;62.57;94213.22;5068917;28;19923;-65
2020/12/10 09:50:54;;;;;;;;;;;;;;;6.14;62.35;94206.66;5068991;28;20384;-65
2020/12/10 09:53:30;;;;;;;;;;;;;;;6.33;62.19;94203.06;5067537;28;19917;-65
2020/12/10 09:58:21;;;;;;;;;;;;;;;6.48;60.92;94197.41;5069039;28;19923;-63
2020/12/10 10:00:50;;;;;;;;;;;;;;;6.49;61.78;94198.97;5067328;28;20370;-65
2020/12/10 10:03:19;;;;;;;;;;;;;;;6.61;61.62;94196.56;5067819;28;20003;-65
2020/12/10 10:05:44;;;;;;;;;;;;;;;6.50;60.85;94196.03;5068658;28;19956;-68
2020/12/10 10:08:09;;;;;;;;;;;;;;;6.68;60.38;94181.06;5067480;28;19994;-63
2020/12/10 10:10:35;;;;;;;;;;;;;;;6.28;61.37;94176.75;5068400;28;19917;-64
2020/12/10 10:13:00;;;;;;;;;;;;;;;6.08;61.25;94181.41;5068169;28;20429;-65
2020/12/10 10:15:25;;;;;;;;;;;;;;;5.88;62.68;94182.63;5068501;28;19928;-64
2020/12/10 10:17:51;;;;;;;;;;;;;;;5.77;62.69;94183.13;5068644;28;19917;-65
2020/12/10 10:20:16;;;;;;;;;;;;;;;5.97;61.72;94186.16;5066975;28;19927;-61
2020/12/10 10:22:41;;;;;;;;;;;;;;;5.89;61.64;94184.19;5068040;28;20432;-66
2020/12/10 10:25:07;;;;;;;;;;;;;;;6.29;61.62;94175.66;5067928;28;20382;-63
2020/12/10 10:27:32;;;;;;;;;;;;;;;6.43;62.04;94182.47;5068343;28;20308;-63
2020/12/10 10:29:58;;;;;;;;;;;;;;;6.42;60.61;94177.47;5067866;28;20420;-64
2020/12/10 10:32:23;;;;;;;;;;;;;;;6.31;60.48;94176.94;5065891;28;19921;-64
2020/12/10 10:34:48;;;;;;;;;;;;;;;6.09;59.98;94169.00;5067852;28;19917;-63
2020/12/10 10:37:13;;;;;;;;;;;;;;;6.05;60.58;94166.19;5068125;28;19948;-64
2020/12/10 10:39:39;;;;;;;;;;;;;;;5.90;61.85;94169.91;5067854;28;20003;-63
2020/12/10 10:42:04;;;;;;;;;;;;;;;6.04;61.34;94164.63;5067818;28;19974;-64
2020/12/10 10:44:30;;;;;;;;;;;;;;;6.25;61.43;94163.09;5057946;28;20275;-65
2020/12/10 10:46:55;;;;;;;;;;;;;;;6.32;61.06;94160.00;5054719;28;20336;-64
2020/12/10 10:49:20;;;;;;;;;;;;;;;6.39;60.78;94154.31;5054429;28;19919;-64
2020/12/10 10:51:49;;;;;;;;;;;;;;;6.50;60.57;94153.00;5054298;28;19917;-64
2020/12/10 10:54:14;;;;;;;;;;;;;;;6.56;60.13;94153.66;5054582;28;19983;-64
2020/12/10 10:56:39;;;;;;;;;;;;;;;6.47;59.78;94153.59;5053147;28;20336;-64
2020/12/10 10:59:05;;;;;;;;;;;;;;;6.53;59.69;94143.69;5054182;28;19921;-64
2020/12/10 11:01:31;;;;;;;;;;;;;;;6.46;59.94;94144.09;5054013;28;19924;-64
2020/12/10 11:03:57;;;;;;;;;;;;;;;6.44;59.88;94146.25;5052746;28;19927;-64
2020/12/10 11:06:22;;;;;;;;;;;;;;;6.47;59.27;94149.09;5054465;28;19917;-63
2020/12/10 11:08:48;;;;;;;;;;;;;;;6.40;59.44;94148.75;5054249;28;19913;-64
2020/12/10 11:11:17;;;;;;;;;;;;;;;6.57;59.52;94148.06;5054024;28;19925;-63
2020/12/10 11:13:42;;;;;;;;;;;;;;;6.67;59.93;94139.88;5053987;28;19943;-65
2020/12/10 11:16:08;;;;;;;;;;;;;;;6.34;59.15;94146.50;5054206;28;19924;-63
2020/12/10 11:18:33;;;;;;;;;;;;;;;6.46;59.58;94141.47;5052514;28;20371;-65
2020/12/10 11:20:58;;;;;;;;;;;;;;;6.34;60.12;94141.22;5054061;28;20007;-63
2020/12/10 11:23:24;;;;;;;;;;;;;;;6.50;60.19;94139.78;5053508;28;19916;-63
2020/12/10 11:25:49;;;;;;;;;;;;;;;6.60;59.29;94123.66;5053505;28;20362;-64
2020/12/10 11:28:14;;;;;;;;;;;;;;;6.46;58.77;94129.03;5053610;28;20460;-64
2020/12/10 11:30:39;;;;;;;;;;;;;;;6.17;60.63;94132.09;5053761;28;19931;-64
2020/12/10 11:33:05;;;;;;;;;;;;;;;6.12;60.82;94132.22;5052775;28;19927;-64
2020/12/10 11:35:30;;;;;;;;;;;;;;;6.30;60.20;94125.22;5053667;28;19924;-63
2020/12/10 11:37:55;;;;;;;;;;;;;;;6.33;59.94;94126.47;5053755;28;20056;-65
2020/12/10 11:40:24;;;;;;;;;;;;;;;6.46;59.45;94131.69;5053389;28;19917;-63
2020/12/10 11:42:50;;;;;;;;;;;;;;;6.58;59.93;94122.41;5053325;28;20421;-64
2020/12/10 11:45:16;;;;;;;;;;;;;;;6.77;59.85;94115.81;5053583;28;19940;-63
2020/12/10 11:47:41;;;;;;;;;;;;;;;6.93;59.27;94118.06;5053340;28;20374;-64
2020/12/10 11:50:06;;;;;;;;;;;;;;;7.02;58.63;94119.66;5053027;28;19917;-63
2020/12/10 11:52:32;;;;;;;;;;;;;;;7.05;58.46;94120.91;5053121;28;19917;-64
2020/12/10 11:54:57;;;;;;;;;;;;;;;7.08;57.65;94112.38;5052759;28;19917;-63
2020/12/10 11:57:24;;;;;;;;;;;;;;;7.25;58.04;94107.13;5052881;28;19913;-64
2020/12/10 11:59:49;;;;;;;;;;;;;;;7.03;56.98;94112.50;5051630;28;19924;-63
2020/12/10 12:02:15;;;;;;;;;;;;;;;6.71;57.44;94106.47;5052350;28;19925;-63
2020/12/10 12:04:40;;;;;;;;;;;;;;;6.62;58.31;94105.66;5053144;28;20517;-63
2020/12/10 12:07:05;;;;;;;;;;;;;;;6.65;59.02;94109.53;5053073;28;19921;-63
2020/12/10 12:09:30;;;;;;;;;;;;;;;6.84;58.43;94109.31;5052824;28;20305;-63
2020/12/10 12:11:59;;;;;;;;;;;;;;;6.86;59.54;94110.59;5051351;28;20287;-64
2020/12/10 12:14:24;;;;;;;;;;;;;;;6.85;58.44;94109.00;5052843;28;19917;-64
2020/12/10 12:16:50;;;;;;;;;;;;;;;7.03;58.51;94109.84;5052872;28;19920;-64
2020/12/10 12:19:15;;;;;;;;;;;;;;;7.00;58.13;94111.22;5052628;28;19917;-64
2020/12/10 12:21:40;;;;;;;;;;;;;;;7.04;57.93;94106.91;5051427;28;19913;-63
2020/12/10 12:24:05;;;;;;;;;;;;;;;6.99;57.96;94112.31;5052819;28;20007;-64
2020/12/10 12:26:31;;;;;;;;;;;;;;;7.02;57.85;94108.31;5053043;28;20326;-64
2020/12/10 12:28:57;;;;;;;;;;;;;;;7.03;57.82;94102.69;5052723;28;19943;-64
2020/12/10 12:31:34;;;;;;;;;;;;;;;7.01;58.20;94102.25;5052434;28;19916;-64
2020/12/10 12:33:59;;;;;;;;;;;;;;;7.06;58.19;94098.66;5052413;28;19917;-63
2020/12/10 12:36:24;;;;;;;;;;;;;;;7.02;57.56;94098.50;5053037;28;20286;-63
2020/12/10 12:38:50;;;;;;;;;;;;;;;7.04;58.23;94101.63;5051262;28;19917;-64
2020/12/10 12:41:15;;;;;;;;;;;;;;;6.98;57.62;94102.06;5052337;28;19924;-63
2020/12/10 12:43:41;;;;;;;;;;;;;;;6.93;57.76;94104.84;5052447;28;20409;-64
2020/12/10 12:46:07;;;;;;;;;;;;;;;6.88;57.31;94097.06;5052316;28;20337;-64
2020/12/10 12:48:32;;;;;;;;;;;;;;;6.71;57.71;94100.41;5052200;28;19943;-64
2020/12/10 12:50:57;;;;;;;;;;;;;;;6.72;58.55;94109.91;5051125;28;19924;-63
2020/12/10 12:53:23;;;;;;;;;;;;;;;6.44;58.48;94107.41;5052181;28;19916;-64
2020/12/10 12:55:48;;;;;;;;;;;;;;;6.49;58.54;94117.06;5052991;28;19924;-63
2020/12/10 12:58:13;;;;;;;;;;;;;;;6.52;59.17;94108.56;5053501;28;20647;-64